Time;durP1;ratioP1;P1;durP2;ratioP2;P2;SDS_P1;SDS_P2;PMS_P1;PMS_P2;Temp;Humidity;BMP_temperature;BMP_pressure;BME280_temperature;BME280_humidity;BME280_pressure;Samples;Min_cycle;Max_cycle;Signal;HPM_P1;HPM_P2
2022/12/02 00:08:31;;;;;;;25.05;15.93;;;4.90;99.90;;;;;;20776845;28;20084;-45
2022/12/02 00:18:32;;;;;;;40.78;16.00;;;4.90;99.90;;;;;;20774711;28;20136;-45
2022/12/02 00:28:33;;;;;;;31.40;17.83;;;4.90;99.90;;;;;;20776832;28;20046;-44
2022/12/02 00:38:34;;;;;;;23.77;15.82;;;4.90;99.90;;;;;;20773309;28;20520;-45
2022/12/02 00:48:35;;;;;;;33.97;18.65;;;4.90;99.90;;;;;;20771589;28;20121;-45
2022/12/02 00:58:37;;;;;;;36.05;18.88;;;5.00;99.90;;;;;;20772115;28;20065;-45
2022/12/02 01:08:38;;;;;;;39.78;20.77;;;5.00;99.90;;;;;;20765109;28;20184;-45
2022/12/02 01:18:39;;;;;;;35.40;18.48;;;4.90;99.90;;;;;;20765286;28;20183;-45
2022/12/02 01:28:40;;;;;;;42.33;21.83;;;4.90;99.90;;;;;;20768497;28;20065;-45
2022/12/02 01:38:41;;;;;;;41.40;18.85;;;4.80;99.90;;;;;;20767140;28;20481;-45
2022/12/02 01:48:42;;;;;;;42.88;20.88;;;4.80;99.90;;;;;;20772968;28;20326;-44
2022/12/02 01:58:43;;;;;;;38.10;16.55;;;4.70;99.90;;;;;;20769487;28;20639;-44
2022/12/02 02:08:44;;;;;;;36.38;18.25;;;4.70;99.90;;;;;;20781314;28;20513;-44
2022/12/02 02:18:45;;;;;;;39.03;18.33;;;4.70;99.90;;;;;;20781976;28;20128;-44
2022/12/02 02:28:46;;;;;;;28.85;16.45;;;4.70;99.90;;;;;;20794183;28;20107;-45
2022/12/02 02:38:48;;;;;;;35.58;18.30;;;4.70;99.90;;;;;;20787902;28;20081;-45
2022/12/02 02:48:50;;;;;;;40.47;18.85;;;4.70;99.90;;;;;;20781851;28;20993;-44
2022/12/02 02:58:52;;;;;;;31.50;17.08;;;4.80;99.90;;;;;;20776544;28;20632;-45
2022/12/02 03:08:54;;;;;;;39.17;18.17;;;4.80;99.90;;;;;;20786915;28;20124;-45
2022/12/02 03:18:56;;;;;;;26.25;15.00;;;4.80;99.90;;;;;;20779167;28;20136;-45
2022/12/02 03:28:58;;;;;;;31.95;16.67;;;4.70;99.90;;;;;;20786712;28;20072;-45
2022/12/02 03:38:59;;;;;;;24.17;14.88;;;4.60;99.90;;;;;;20786528;28;20523;-46
2022/12/02 03:49:01;;;;;;;35.60;19.10;;;4.70;99.90;;;;;;20783340;28;20065;-44
2022/12/02 03:59:03;;;;;;;38.15;17.25;;;4.60;99.90;;;;;;20783124;28;20773;-44
2022/12/02 04:09:04;;;;;;;31.05;14.25;;;4.60;99.90;;;;;;20771909;28;20171;-45
2022/12/02 04:19:05;;;;;;;29.73;15.40;;;4.60;99.90;;;;;;20781529;28;20064;-45
2022/12/02 04:29:06;;;;;;;31.00;17.17;;;4.60;99.90;;;;;;20784912;28;20131;-44
2022/12/02 04:39:06;;;;;;;32.10;14.20;;;4.60;99.90;;;;;;20783041;28;20050;-45
2022/12/02 04:49:07;;;;;;;22.75;14.35;;;4.60;99.90;;;;;;20780764;28;20052;-45
2022/12/02 04:59:08;;;;;;;32.97;15.05;;;4.60;99.90;;;;;;20773987;28;20136;-44
2022/12/02 05:09:10;;;;;;;18.48;11.88;;;4.60;99.90;;;;;;20779008;28;20040;-45
2022/12/02 05:19:11;;;;;;;28.02;13.65;;;4.60;99.90;;;;;;20773162;28;20525;-45
2022/12/02 05:29:12;;;;;;;22.35;12.70;;;4.70;99.90;;;;;;20776414;28;20106;-45
2022/12/02 05:39:13;;;;;;;25.33;12.38;;;4.50;99.90;;;;;;20778171;28;20091;-45
2022/12/02 05:49:22;;;;;;;27.98;12.18;;;4.50;99.90;;;;;;20772757;28;20495;-45
2022/12/02 05:59:23;;;;;;;17.85;11.00;;;4.40;99.90;;;;;;20793927;28;20103;-45
2022/12/02 06:09:27;;;;;;;18.38;10.05;;;4.30;99.90;;;;;;20776441;28;20100;-45
2022/12/02 06:19:55;;;;;;;20.33;10.82;;;4.30;99.90;;;;;;20780403;28;20705;-45
2022/12/02 06:30:04;;;;;;;23.10;9.52;;;4.20;99.90;;;;;;20774415;28;20773;-44
2022/12/02 06:40:29;;;;;;;21.42;10.38;;;4.20;99.90;;;;;;20779081;28;20188;-44
2022/12/02 06:50:39;;;;;;;23.17;10.20;;;4.10;99.90;;;;;;20775548;28;20115;-44
2022/12/02 07:00:40;;;;;;;18.27;10.65;;;4.10;99.90;;;;;;20775015;28;20592;-45
2022/12/02 07:10:41;;;;;;;22.85;10.90;;;4.00;99.90;;;;;;20783333;28;22716;-44
2022/12/02 07:20:44;;;;;;;19.75;9.60;;;4.00;99.90;;;;;;20789921;28;20118;-44
2022/12/02 07:31:10;;;;;;;17.15;8.10;;;4.00;99.90;;;;;;20758914;28;20068;-44
2022/12/02 07:41:14;;;;;;;21.67;8.75;;;3.80;99.90;;;;;;20789941;28;20909;-44
2022/12/02 07:51:15;;;;;;;21.17;7.45;;;3.90;99.90;;;;;;20785873;28;20231;-44
2022/12/02 08:01:16;;;;;;;24.27;8.38;;;3.80;99.90;;;;;;20794838;28;20037;-44
2022/12/02 08:11:17;;;;;;;10.73;6.47;;;3.90;99.90;;;;;;20785444;28;20049;-44
2022/12/02 08:21:18;;;;;;;13.95;7.28;;;3.80;99.90;;;;;;20784952;28;20068;-45
2022/12/02 08:31:19;;;;;;;13.57;7.38;;;3.80;99.90;;;;;;20790340;28;20049;-45
2022/12/02 08:41:20;;;;;;;14.15;7.75;;;3.80;99.90;;;;;;20770316;28;20975;-44
2022/12/02 08:51:21;;;;;;;13.18;6.03;;;3.80;99.90;;;;;;20765026;28;20170;-45
2022/12/02 09:01:22;;;;;;;17.23;8.15;;;3.90;99.90;;;;;;20778416;28;20780;-44
2022/12/02 09:11:23;;;;;;;16.48;5.88;;;3.80;99.90;;;;;;20765353;28;20053;-44
2022/12/02 09:21:24;;;;;;;13.05;7.05;;;3.70;99.90;;;;;;20734772;28;20492;-44
2022/12/02 09:31:25;;;;;;;12.18;7.47;;;3.90;99.90;;;;;;20754031;28;20616;-44
2022/12/02 09:41:28;;;;;;;11.85;6.75;;;3.90;99.90;;;;;;20751252;28;20050;-44
2022/12/02 09:51:30;;;;;;;10.80;5.95;;;3.90;99.90;;;;;;20756594;28;20098;-45
2022/12/02 10:01:31;;;;;;;15.60;8.23;;;3.90;99.90;;;;;;20758998;28;20119;-45
2022/12/02 10:11:33;;;;;;;19.25;7.82;;;3.90;99.90;;;;;;20746775;28;20124;-45
2022/12/02 10:21:34;;;;;;;14.95;7.35;;;4.00;99.90;;;;;;20752119;28;20179;-45
2022/12/02 10:31:35;;;;;;;12.13;7.47;;;4.10;99.90;;;;;;20765495;28;20038;-45
2022/12/02 10:41:36;;;;;;;15.45;7.95;;;4.10;99.90;;;;;;20776920;28;20151;-44
2022/12/02 10:51:37;;;;;;;23.27;8.32;;;4.20;99.90;;;;;;20778287;28;20049;-44
2022/12/02 11:01:39;;;;;;;20.75;9.48;;;4.00;99.90;;;;;;20774091;28;20575;-44
2022/12/02 11:11:41;;;;;;;22.67;10.45;;;4.00;99.90;;;;;;20769637;28;20184;-44
2022/12/02 11:21:45;;;;;;;26.33;10.40;;;3.90;99.90;;;;;;20804018;28;20029;-44
2022/12/02 11:32:12;;;;;;;17.52;9.82;;;3.90;99.90;;;;;;20807684;28;20090;-44
2022/12/02 11:42:14;;;;;;;;;;;3.80;99.90;;;;;;20802341;28;20782;-45
2022/12/02 11:52:21;;;;;;;16.95;9.00;;;3.70;99.90;;;;;;20805827;28;20304;-45
2022/12/02 12:02:24;;;;;;;11.60;8.25;;;3.90;99.90;;;;;;20794979;28;20503;-44
2022/12/02 12:12:25;;;;;;;22.42;8.55;;;3.90;99.90;;;;;;20792882;28;20075;-44
2022/12/02 12:22:28;;;;;;;17.25;9.10;;;4.00;99.90;;;;;;20780548;28;20068;-44
2022/12/02 12:32:29;;;;;;;21.00;10.73;;;3.90;99.90;;;;;;20782835;28;20533;-44
2022/12/02 12:42:30;;;;;;;24.83;9.20;;;3.90;99.90;;;;;;20785151;28;20511;-44
2022/12/02 12:52:31;;;;;;;23.77;13.30;;;3.80;99.90;;;;;;20766571;28;20234;-45
2022/12/02 13:02:32;;;;;;;19.45;10.65;;;3.70;99.90;;;;;;20775623;28;20870;-45
2022/12/02 13:12:33;;;;;;;21.00;11.45;;;3.70;99.90;;;;;;20775348;28;20554;-44
2022/12/02 13:22:34;;;;;;;20.02;10.30;;;3.60;99.90;;;;;;20751505;28;20505;-44
2022/12/02 13:32:36;;;;;;;14.13;9.05;;;3.60;99.90;;;;;;20754712;28;20071;-45
2022/12/02 13:42:37;;;;;;;26.38;10.43;;;3.60;99.90;;;;;;20747247;28;20037;-45
2022/12/02 13:52:38;;;;;;;31.42;8.60;;;3.70;99.90;;;;;;20759491;28;20800;-44
2022/12/02 14:02:41;;;;;;;18.95;8.68;;;3.70;99.90;;;;;;20763399;28;20057;-44
2022/12/02 14:12:41;;;;;;;17.20;6.35;;;3.70;99.90;;;;;;20768736;28;20053;-44
2022/12/02 14:22:43;;;;;;;12.25;4.25;;;3.70;99.90;;;;;;20776744;28;20068;-44
2022/12/02 14:32:44;;;;;;;9.18;6.03;;;3.70;99.90;;;;;;20782136;28;20239;-44
2022/12/02 14:42:45;;;;;;;10.38;4.47;;;3.60;99.90;;;;;;20772726;28;20036;-42
2022/12/02 14:52:46;;;;;;;13.80;6.43;;;3.50;99.90;;;;;;20764836;28;20040;-42
2022/12/02 15:02:47;;;;;;;13.80;6.70;;;3.50;99.90;;;;;;20771483;28;20881;-42
2022/12/02 15:12:48;;;;;;;9.13;5.28;;;3.50;99.90;;;;;;20767330;28;20041;-42
2022/12/02 15:22:49;;;;;;;11.65;6.80;;;3.40;99.90;;;;;;20765922;28;20853;-42
2022/12/02 15:32:50;;;;;;;14.23;7.97;;;3.40;99.90;;;;;;20767120;28;20318;-42
2022/12/02 15:42:51;;;;;;;17.70;10.45;;;3.40;99.90;;;;;;20752741;28;20037;-42
2022/12/02 15:52:52;;;;;;;17.55;9.77;;;3.40;99.90;;;;;;20755642;28;20136;-42
2022/12/02 16:02:53;;;;;;;20.17;9.65;;;3.40;99.90;;;;;;20754553;28;20164;-42
2022/12/02 16:12:54;;;;;;;25.92;12.10;;;3.40;99.90;;;;;;20765772;28;20076;-42
2022/12/02 16:22:55;;;;;;;19.10;13.05;;;3.40;99.90;;;;;;20757884;28;20077;-42
2022/12/02 16:32:56;;;;;;;21.85;10.25;;;3.40;99.90;;;;;;20778633;28;20654;-42
2022/12/02 16:42:57;;;;;;;25.30;14.07;;;3.50;99.90;;;;;;20773725;28;20461;-42
2022/12/02 16:52:58;;;;;;;23.95;14.25;;;3.40;99.90;;;;;;20759092;28;20045;-42
2022/12/02 17:02:59;;;;;;;22.70;13.02;;;3.50;99.90;;;;;;20761842;28;20080;-41
2022/12/02 17:13:00;;;;;;;28.17;14.52;;;3.40;99.90;;;;;;20750321;28;20087;-42
2022/12/02 17:23:01;;;;;;;24.35;14.38;;;3.40;99.90;;;;;;20806558;28;20040;-42
2022/12/02 17:33:03;;;;;;;25.63;13.52;;;3.40;99.90;;;;;;20806550;28;20058;-41
2022/12/02 17:43:04;;;;;;;23.30;11.43;;;3.50;99.90;;;;;;20785998;28;20123;-41
2022/12/02 17:53:05;;;;;;;30.02;13.82;;;3.40;99.90;;;;;;20768376;28;20046;-42
2022/12/02 18:03:06;;;;;;;21.77;12.63;;;3.40;99.90;;;;;;20762307;28;20416;-42
2022/12/02 18:13:07;;;;;;;27.38;13.13;;;3.60;99.90;;;;;;20779596;28;20041;-42
2022/12/02 18:23:08;;;;;;;22.45;10.23;;;3.40;99.90;;;;;;20777186;28;20045;-42
2022/12/02 18:33:09;;;;;;;23.88;11.75;;;3.50;99.90;;;;;;20775805;28;20963;-42
2022/12/02 18:43:10;;;;;;;24.05;13.25;;;3.50;99.90;;;;;;20773508;28;20147;-41
2022/12/02 18:53:11;;;;;;;20.77;12.60;;;3.50;99.90;;;;;;20770770;28;20053;-41
2022/12/02 19:03:12;;;;;;;23.50;13.88;;;3.60;99.90;;;;;;20771198;28;20044;-42
2022/12/02 19:13:14;;;;;;;18.95;9.95;;;3.50;99.90;;;;;;20782703;28;20297;-42
2022/12/02 19:23:15;;;;;;;21.08;10.02;;;3.40;99.90;;;;;;20787860;28;20037;-42
2022/12/02 19:33:16;;;;;;;20.88;9.88;;;3.40;99.90;;;;;;20780999;28;20064;-42
2022/12/02 19:43:17;;;;;;;21.90;12.95;;;3.40;99.90;;;;;;20774592;28;20613;-41
2022/12/02 19:53:18;;;;;;;20.88;12.45;;;3.40;99.90;;;;;;20778594;28;20045;-42
2022/12/02 20:03:19;;;;;;;22.05;10.45;;;3.30;99.90;;;;;;20778465;28;20127;-41
2022/12/02 20:13:20;;;;;;;17.38;10.32;;;3.30;99.90;;;;;;20786120;28;20096;-42
2022/12/02 20:23:22;;;;;;;13.52;6.90;;;3.20;99.90;;;;;;20786501;28;20130;-41
2022/12/02 20:33:23;;;;;;;19.85;10.00;;;3.30;99.90;;;;;;20783145;28;20088;-42
2022/12/02 20:43:24;;;;;;;16.10;6.63;;;3.30;99.90;;;;;;20780396;28;20048;-41
2022/12/02 20:53:25;;;;;;;17.73;8.30;;;3.30;99.90;;;;;;20780558;28;20052;-42
2022/12/02 21:03:26;;;;;;;15.38;8.70;;;3.20;99.90;;;;;;20778219;28;20053;-41
2022/12/02 21:13:27;;;;;;;11.10;7.57;;;3.30;99.90;;;;;;20774707;28;20053;-42
2022/12/02 21:23:28;;;;;;;15.10;7.15;;;3.30;99.90;;;;;;20719717;28;20063;-42
2022/12/02 21:33:29;;;;;;;11.77;7.38;;;3.30;99.90;;;;;;20767507;28;20409;-42
2022/12/02 21:43:30;;;;;;;19.75;8.07;;;3.30;99.90;;;;;;20768347;28;20049;-42
2022/12/02 21:53:31;;;;;;;16.38;8.18;;;3.20;99.90;;;;;;20779975;28;20134;-41
2022/12/02 22:03:33;;;;;;;10.07;4.90;;;3.10;99.90;;;;;;20774893;28;20042;-41
2022/12/02 22:13:34;;;;;;;11.50;5.68;;;3.10;99.90;;;;;;20772099;28;20068;-42
2022/12/02 22:23:35;;;;;;;9.20;5.85;;;3.30;99.90;;;;;;20779079;28;20038;-42
2022/12/02 22:33:36;;;;;;;12.70;6.30;;;3.20;99.90;;;;;;20798293;28;20057;-41
2022/12/02 22:43:37;;;;;;;11.02;5.75;;;3.10;99.90;;;;;;20815836;28;20523;-41
2022/12/02 22:53:38;;;;;;;15.82;7.25;;;3.20;99.90;;;;;;20803115;28;20055;-42
2022/12/02 23:03:39;;;;;;;17.70;7.07;;;3.20;99.90;;;;;;20808643;28;20022;-41
2022/12/02 23:13:40;;;;;;;12.05;6.85;;;3.20;99.90;;;;;;20802055;28;20037;-41
2022/12/02 23:23:41;;;;;;;10.93;7.10;;;3.10;99.90;;;;;;20804127;28;20667;-41
2022/12/02 23:33:42;;;;;;;19.45;9.68;;;3.20;99.90;;;;;;20782639;28;20057;-42
2022/12/02 23:43:43;;;;;;;14.57;7.05;;;3.20;99.90;;;;;;20788458;28;20409;-41
2022/12/02 23:53:44;;;;;;;18.85;7.10;;;3.10;99.90;;;;;;20786970;28;20173;-41
